• Join FlightAware (Why Join?)
  • Login
  • US Flag 
04:25PM EDT


 

Airport Tracker/Info


-or-


 

Live Flight TrackerFlight Track Log ✈ EGF4099 ✈ 26-Apr-2013 ✈ KORD - KCID

Flight Track Log - Related Links

Times and Time Zones

All times are in EDT time to prevent confusion due to time zone crossing. See the EGF4099 flight status page for this flight to view local times or setup timezone preferences in your user account.

Time Position Orientation Groundspeed Altitude Reporting Facility
EDT Latitude Longitude Course Direction KTS MPH feet Rate Location/Type
09:20AM 41.9367 -87.9219 270° West 178 205 20,000  Level Chicago Center
09:21AM 41.8975 -87.9678 221° Southwest 213 245 4,800 -5,400 Descending Chicago Center
09:22AM 41.9667 -88.2688 270° West  Level FlightAware Approximate
09:22AM 41.8403 -88.0456 225° Southwest 245 282 8,900  Level Chicago Center
09:23AM 41.9667 -88.3918 270° West  Level FlightAware Approximate
09:23AM 41.8569 -88.1344 284° West 254 292 11,900  Level Chicago Center
09:24AM 41.9667 -88.5147 270° West  Level FlightAware Approximate
09:24AM 41.8806 -88.2308 288° West 273 314 13,700  Level Chicago Center
09:25AM 41.9668 -88.6376 270° West  Level FlightAware Approximate
09:25AM 41.8786 -88.3531 269° West 329 379 14,800  Level Chicago Center
09:26AM 41.8786 -88.4800 270° West 344 396 16,500 1,680 Climbing Chicago Center
09:27AM 41.8819 -88.6356 272° West 348 400 18,300 1,500 Climbing Chicago Center
09:28AM 41.8839 -88.7664 271° West 351 404 19,600 780 Climbing Chicago Center
09:29AM 41.8853 -88.9047 271° West 366 421 20,000 180 Climbing Chicago Center
09:30AM 41.8864 -89.0422 271° West 371 427 20,000  Level Chicago Center
09:31AM 41.8883 -89.1761 271° West 365 420 20,000  Level Chicago Center
09:33AM 41.8889 -89.3364 270° West 363 418 20,000  Level Chicago Center
09:34AM 41.8906 -89.4725 271° West 364 419 20,000  Level Chicago Center
09:35AM 41.8922 -89.6100 271° West 369 425 20,000  Level Chicago Center
09:36AM 41.8931 -89.7450 271° West 366 421 20,000  Level Chicago Center
09:37AM 41.8933 -89.8775 270° West 359 413 20,000  Level Chicago Center
09:38AM 41.8944 -90.0153 271° West 368 423 20,000 -120 Level Chicago Center
09:39AM 41.8933 -90.1742 270° West 363 418 19,800 -1,140 Descending Chicago Center
09:40AM 41.8942 -90.3050 271° West 356 410 17,700 -1,920 Descending Chicago Center
09:41AM 41.8953 -90.4378 271° West 357 411 15,900 -1,920 Descending Chicago Center
09:42AM 41.8936 -90.5675 269° West 353 406 13,800 -2,040 Descending Chicago Center
09:43AM 41.8933 -90.6986 270° West 352 405 11,700 -1,320 Descending Chicago Center
09:44AM 41.8933 -90.8236 270° West 340 391 11,100 -300 Descending Chicago Center
09:45AM 41.9033 -90.9739 275° West 351 404 11,100 -300 Level Chicago Center
09:46AM 41.9256 -91.0969 284° West 341 392 10,500 -1,020 Descending Chicago Center
09:47AM 41.9464 -91.1961 286° West 286 329 9,000 -1,620 Descending Chicago Center
09:48AM 41.9653 -91.2883 285° West 266 306 7,300 -1,740 Descending Chicago Center
09:49AM 41.9728 -91.3786 276° West 248 285 5,500 -1,620 Descending Chicago Center
09:50AM 41.9806 -91.4631 277° West 237 273 4,000 -1,260 Descending Chicago Center
09:51AM 41.9892 -91.5647 277° West 232 267 3,000 -540 Descending Chicago Center
09:52AM 41.9881 -91.6481 269° West 229 264 3,000  Level Chicago Center